Pagrindinis puslapis
METAR-TAF:

METAR-TAF

Oro uostai :

Puerto Fransisko de Oreljana, Ekvadoras

platuma: 00-27-46S, ilguma: 076-59-12W, Aukštis: 254 m

Dabartinis oras

Ataskaita buvo paskelbta 5 valandos ir 30 minutes, ne 23:00 UTC
Vėjas 2 kt iš Pietų
Temperatūra 26°C
Drėgmė 89%
Slėgis 1011 hPa
Matomumas 10 km arba daugiau
Mažai debesys ne aukštis 2000 ft
Išsisklaidę debesys ne aukštis 10000 ft

METAR: SECO 282300Z 19002KT 9999 FEW020 SCT100 26/24 Q1011 RMK A2987

Laikas: 23:30 (04:30 UTC)


TAF: trūkstamas

Orai ataskaitas ir orų prognozės (METAR, TAF).

turimą stotys yra geltonos ir raudonos taškus žemėlapyje.

Perkelti pele per norėdami pamatyti stoties vardą.

Tada spustelėkite, norėdami matyti oro stebėjimo ir prognozės.

Norėdami pakeisti žemėlapį: spustelėkite ant žalios mygtukų su juodo kryžiaus žemyn,; žalią mygtuką su brūkšneliu, jei norite nutolinti; arba žalių rodyklių gretimoms žemėlapius.


METAR-TAF: